createdAt,value
2018-03-11T00:00:44.395Z,974.26
2018-03-11T00:01:44.642Z,974.27
2018-03-11T00:02:44.879Z,974.30
2018-03-11T00:03:45.104Z,974.27
2018-03-11T00:04:45.357Z,974.21
2018-03-11T00:05:45.596Z,974.25
2018-03-11T00:06:45.838Z,974.27
2018-03-11T00:07:46.072Z,974.27
2018-03-11T00:08:46.311Z,974.29
2018-03-11T00:09:46.550Z,974.23
2018-03-11T00:10:46.790Z,974.28
2018-03-11T00:11:47.029Z,974.27
2018-03-11T00:12:47.270Z,974.26
2018-03-11T00:13:47.505Z,974.27
2018-03-11T00:14:47.738Z,974.24
2018-03-11T00:15:47.980Z,974.21
2018-03-11T00:16:48.225Z,974.23
2018-03-11T00:17:48.464Z,974.20
2018-03-11T00:18:48.702Z,974.20
2018-03-11T00:19:48.941Z,974.16
2018-03-11T00:20:49.180Z,974.18
2018-03-11T00:21:49.424Z,974.19
2018-03-11T00:22:49.657Z,974.16
2018-03-11T00:23:49.895Z,974.20
2018-03-11T00:24:50.133Z,974.20
2018-03-11T00:25:50.376Z,974.22
2018-03-11T00:26:50.613Z,974.21
2018-03-11T00:27:50.852Z,974.24
2018-03-11T00:28:51.095Z,974.25
2018-03-11T00:29:51.331Z,974.26
2018-03-11T00:30:51.570Z,974.19
2018-03-11T00:31:51.810Z,974.22
2018-03-11T00:32:52.057Z,974.22
2018-03-11T00:33:52.289Z,974.15
2018-03-11T00:34:52.527Z,974.20
2018-03-11T00:35:52.766Z,974.19
2018-03-11T00:36:53.007Z,974.18
2018-03-11T00:37:53.243Z,974.22
2018-03-11T00:38:53.482Z,974.21
2018-03-11T00:39:53.719Z,974.24
2018-03-11T00:40:53.955Z,974.21
2018-03-11T00:41:54.197Z,974.24
2018-03-11T00:42:54.436Z,974.24
2018-03-11T00:43:54.841Z,974.21
2018-03-11T00:44:55.082Z,974.26
2018-03-11T00:45:55.321Z,974.23
2018-03-11T00:46:55.553Z,974.19
2018-03-11T00:47:55.791Z,974.21
2018-03-11T00:48:56.033Z,974.18
2018-03-11T00:49:56.270Z,974.19
2018-03-11T00:50:56.503Z,974.16
2018-03-11T00:51:56.742Z,974.17
2018-03-11T00:52:56.982Z,974.21
2018-03-11T00:53:57.218Z,974.19
2018-03-11T00:54:57.472Z,974.16
2018-03-11T00:55:57.697Z,974.18
2018-03-11T00:56:57.936Z,974.17
2018-03-11T00:57:58.173Z,974.16
2018-03-11T00:58:58.416Z,974.10
2018-03-11T00:59:58.659Z,974.13
2018-03-11T01:00:58.907Z,974.14
2018-03-11T01:01:59.135Z,974.12
2018-03-11T01:02:59.374Z,974.12
2018-03-11T01:03:59.620Z,974.13
2018-03-11T01:04:59.863Z,974.14
2018-03-11T01:06:00.104Z,974.12
2018-03-11T01:07:00.348Z,974.12
2018-03-11T01:08:00.592Z,974.14
2018-03-11T01:09:00.822Z,974.13
2018-03-11T01:10:01.062Z,974.15
2018-03-11T01:11:01.298Z,974.15
2018-03-11T01:12:01.541Z,974.11
2018-03-11T01:13:01.823Z,974.14
2018-03-11T01:14:02.021Z,974.15
2018-03-11T01:15:09.389Z,974.16
2018-03-11T01:16:09.886Z,974.10
2018-03-11T01:17:09.911Z,974.15
2018-03-11T01:18:10.401Z,974.08
2018-03-11T01:19:10.630Z,974.08
2018-03-11T01:20:10.846Z,974.02
2018-03-11T01:21:10.893Z,974.04
2018-03-11T01:22:11.158Z,974.03
2018-03-11T01:23:04.284Z,974.00
2018-03-11T01:24:04.524Z,973.95
2018-03-11T01:25:04.749Z,973.95
2018-03-11T01:26:04.989Z,973.90
2018-03-11T01:27:05.232Z,973.91
2018-03-11T01:28:05.461Z,973.93
2018-03-11T01:29:05.697Z,973.92
2018-03-11T01:30:05.939Z,973.93
2018-03-11T01:31:06.176Z,973.91
2018-03-11T01:32:06.422Z,973.89
2018-03-11T01:33:06.660Z,973.87
2018-03-11T01:34:06.896Z,973.86
2018-03-11T01:35:07.137Z,973.84
2018-03-11T01:36:07.373Z,973.84
2018-03-11T01:37:07.617Z,973.85
2018-03-11T01:38:07.862Z,973.82
2018-03-11T01:39:08.092Z,973.84
2018-03-11T01:40:08.331Z,973.83
2018-03-11T01:41:08.571Z,973.83
2018-03-11T01:42:08.812Z,973.82
2018-03-11T01:43:09.047Z,973.80
2018-03-11T01:44:09.288Z,973.79
2018-03-11T01:45:09.523Z,973.81
2018-03-11T01:46:09.762Z,973.76
2018-03-11T01:47:09.988Z,973.75
2018-03-11T01:48:10.223Z,973.79
2018-03-11T01:49:10.463Z,973.78
2018-03-11T01:50:10.702Z,973.80
2018-03-11T01:51:10.938Z,973.78
2018-03-11T01:52:11.177Z,973.77
2018-03-11T01:53:11.416Z,973.79
2018-03-11T01:54:11.659Z,973.77
2018-03-11T01:55:11.893Z,973.74
2018-03-11T01:56:12.134Z,973.79
2018-03-11T01:57:12.370Z,973.74
2018-03-11T01:58:12.608Z,973.72
2018-03-11T01:59:12.849Z,973.67
2018-03-11T02:00:13.088Z,973.62
2018-03-11T02:01:13.328Z,973.65
2018-03-11T02:02:13.565Z,973.63
2018-03-11T02:03:13.804Z,973.60
2018-03-11T02:04:14.048Z,973.63
2018-03-11T02:05:14.294Z,973.60
2018-03-11T02:06:14.524Z,973.58
2018-03-11T02:07:14.763Z,973.59
2018-03-11T02:08:15.003Z,973.53
2018-03-11T02:09:15.243Z,973.50
2018-03-11T02:10:15.485Z,973.47
2018-03-11T02:11:15.724Z,973.47
2018-03-11T02:12:15.963Z,973.43
2018-03-11T02:13:16.202Z,973.43
2018-03-11T02:14:16.442Z,973.41
2018-03-11T02:15:16.684Z,973.39
2018-03-11T02:16:16.929Z,973.36
2018-03-11T02:17:17.161Z,973.36
2018-03-11T02:18:17.420Z,973.39
2018-03-11T02:19:17.632Z,973.34
2018-03-11T02:20:17.870Z,973.34
2018-03-11T02:21:18.110Z,973.31
2018-03-11T02:22:18.347Z,973.29
2018-03-11T02:23:18.586Z,973.31
2018-03-11T02:24:18.827Z,973.28
2018-03-11T02:25:19.062Z,973.24
2018-03-11T02:26:19.302Z,973.22
2018-03-11T02:27:19.540Z,973.24
2018-03-11T02:28:19.782Z,973.23
2018-03-11T02:29:20.021Z,973.20
2018-03-11T02:30:20.275Z,973.20
2018-03-11T02:31:20.515Z,973.23
2018-03-11T02:32:20.743Z,973.21
2018-03-11T02:33:20.983Z,973.19
2018-03-11T02:34:21.224Z,973.18
2018-03-11T02:35:21.464Z,973.18
2018-03-11T02:36:21.700Z,973.18
2018-03-11T02:37:21.938Z,973.19
2018-03-11T02:38:22.174Z,973.14
2018-03-11T02:39:22.413Z,973.14
2018-03-11T02:40:22.655Z,973.11
2018-03-11T02:41:22.896Z,973.09
2018-03-11T02:42:23.132Z,973.08
2018-03-11T02:43:23.372Z,973.09
2018-03-11T02:44:23.615Z,973.08
2018-03-11T02:45:23.851Z,973.05
2018-03-11T02:46:24.090Z,973.03
2018-03-11T02:47:24.327Z,973.04
2018-03-11T02:48:24.566Z,973.01
2018-03-11T02:49:24.806Z,972.99
2018-03-11T02:50:25.047Z,973.02
2018-03-11T02:51:25.282Z,972.99
2018-03-11T02:52:25.523Z,972.96
2018-03-11T02:53:25.759Z,972.91
2018-03-11T02:54:26.001Z,972.89
2018-03-11T02:55:26.237Z,972.88
2018-03-11T02:56:26.476Z,972.91
2018-03-11T02:57:26.716Z,972.92
2018-03-11T02:58:26.959Z,972.92
2018-03-11T02:59:27.194Z,972.91
2018-03-11T03:00:27.436Z,972.88
2018-03-11T03:01:27.684Z,972.86
2018-03-11T03:02:27.924Z,972.81
2018-03-11T03:03:28.164Z,972.80
2018-03-11T03:04:28.401Z,972.78
2018-03-11T03:05:28.642Z,972.73
2018-03-11T03:06:28.883Z,972.74
2018-03-11T03:07:29.122Z,972.77
2018-03-11T03:08:29.368Z,972.78
2018-03-11T03:09:29.605Z,972.79
2018-03-11T03:10:29.841Z,972.76
2018-03-11T03:11:30.081Z,972.69
2018-03-11T03:12:30.320Z,972.71
2018-03-11T03:13:30.554Z,972.69
2018-03-11T03:14:30.799Z,972.68
2018-03-11T03:15:31.038Z,972.68
2018-03-11T03:16:31.277Z,972.69
2018-03-11T03:17:31.517Z,972.69
2018-03-11T03:18:31.758Z,972.69
2018-03-11T03:19:31.996Z,972.69
2018-03-11T03:20:32.236Z,972.68
2018-03-11T03:21:32.475Z,972.67
2018-03-11T03:22:32.714Z,972.67
2018-03-11T03:23:32.952Z,972.62
2018-03-11T03:24:33.192Z,972.64
2018-03-11T03:25:33.431Z,972.59
2018-03-11T03:26:33.671Z,972.58
2018-03-11T03:27:33.909Z,972.50
2018-03-11T03:28:34.150Z,972.51
2018-03-11T03:29:34.392Z,972.47
2018-03-11T03:30:34.644Z,972.46
2018-03-11T03:31:34.877Z,972.45
2018-03-11T03:32:35.112Z,972.45
2018-03-11T03:33:35.352Z,972.42
2018-03-11T03:34:35.590Z,972.44
2018-03-11T03:35:35.826Z,972.36
2018-03-11T03:36:36.065Z,972.34
2018-03-11T03:37:36.306Z,972.34
2018-03-11T03:38:36.541Z,972.31
2018-03-11T03:39:36.773Z,972.29
2018-03-11T03:40:37.012Z,972.23
2018-03-11T03:41:37.251Z,972.25
2018-03-11T03:42:37.489Z,972.28
2018-03-11T03:43:37.730Z,972.33
2018-03-11T03:44:37.977Z,972.37
2018-03-11T03:45:38.215Z,972.39
2018-03-11T03:46:38.452Z,972.33
2018-03-11T03:47:38.691Z,972.35
2018-03-11T03:48:38.931Z,972.35
2018-03-11T03:49:39.173Z,972.31
2018-03-11T03:50:39.406Z,972.31
2018-03-11T03:51:39.647Z,972.34
2018-03-11T03:52:39.886Z,972.33
2018-03-11T03:53:40.153Z,972.31
2018-03-11T03:54:40.354Z,972.31
2018-03-11T03:55:40.592Z,972.31
2018-03-11T03:56:40.831Z,972.20
2018-03-11T03:57:41.104Z,972.22
2018-03-11T03:58:41.305Z,972.26
2018-03-11T03:59:41.545Z,972.29
2018-03-11T04:00:49.417Z,972.34
2018-03-11T04:01:49.214Z,972.39
2018-03-11T04:02:49.469Z,972.40
2018-03-11T04:03:50.226Z,972.37
2018-03-11T04:04:50.520Z,972.35
2018-03-11T04:05:50.841Z,972.30
2018-03-11T04:06:50.641Z,972.27
2018-03-11T04:07:43.768Z,972.25
2018-03-11T04:08:44.013Z,972.20
2018-03-11T04:09:44.244Z,972.15
2018-03-11T04:10:44.484Z,972.11
2018-03-11T04:11:44.722Z,972.09
2018-03-11T04:12:44.962Z,972.08
2018-03-11T04:13:45.195Z,972.08
2018-03-11T04:14:45.435Z,972.05
2018-03-11T04:15:45.674Z,972.10
2018-03-11T04:16:45.911Z,972.09
2018-03-11T04:17:46.149Z,972.08
2018-03-11T04:18:46.388Z,972.09
2018-03-11T04:19:46.628Z,972.11
2018-03-11T04:20:46.865Z,972.13
2018-03-11T04:21:47.106Z,972.13
2018-03-11T04:22:47.352Z,972.08
2018-03-11T04:23:47.598Z,972.14
2018-03-11T04:24:47.825Z,972.14
2018-03-11T04:25:48.065Z,972.16
2018-03-11T04:26:48.305Z,972.15
2018-03-11T04:27:48.546Z,972.15
2018-03-11T04:28:48.781Z,972.15
2018-03-11T04:29:49.020Z,972.13
2018-03-11T04:30:49.259Z,972.10
2018-03-11T04:31:49.498Z,972.14
2018-03-11T04:32:49.735Z,972.11
2018-03-11T04:33:49.974Z,972.15
2018-03-11T04:34:50.213Z,972.12
2018-03-11T04:35:50.454Z,972.14
2018-03-11T04:36:50.691Z,972.12
2018-03-11T04:37:50.936Z,972.10
2018-03-11T04:38:51.182Z,972.10
2018-03-11T04:39:51.409Z,972.04
2018-03-11T04:40:51.651Z,972.06
2018-03-11T04:41:51.889Z,972.01
2018-03-11T04:42:52.130Z,972.03
2018-03-11T04:43:52.368Z,972.02
2018-03-11T04:44:52.603Z,972.02
2018-03-11T04:45:52.844Z,972.05
2018-03-11T04:46:53.081Z,972.03
2018-03-11T04:47:53.321Z,972.03
2018-03-11T04:48:53.560Z,972.07
2018-03-11T04:49:53.826Z,972.10
2018-03-11T04:50:54.033Z,972.13
2018-03-11T04:51:54.273Z,972.12
2018-03-11T04:52:54.518Z,972.19
2018-03-11T04:53:54.760Z,972.18
2018-03-11T04:54:54.997Z,972.16
2018-03-11T04:55:55.236Z,972.17
2018-03-11T04:56:55.476Z,972.17
2018-03-11T04:57:55.715Z,972.18
2018-03-11T04:58:55.949Z,972.20
2018-03-11T04:59:56.189Z,972.21
2018-03-11T05:00:56.429Z,972.22
2018-03-11T05:01:56.666Z,972.17
2018-03-11T05:02:56.907Z,972.19
2018-03-11T05:03:57.152Z,972.21
2018-03-11T05:04:57.392Z,972.20
2018-03-11T05:05:57.631Z,972.17
2018-03-11T05:06:57.869Z,972.14
2018-03-11T05:07:58.109Z,972.17
2018-03-11T05:08:58.350Z,972.12
2018-03-11T05:09:58.584Z,972.13
2018-03-11T05:10:58.824Z,972.12
2018-03-11T05:11:59.071Z,972.12
2018-03-11T05:12:59.300Z,972.12
2018-03-11T05:13:59.542Z,972.13
2018-03-11T05:14:59.781Z,972.12
2018-03-11T05:16:00.014Z,972.07
2018-03-11T05:17:00.253Z,972.05
2018-03-11T05:18:00.491Z,972.04
2018-03-11T05:19:00.730Z,972.02
2018-03-11T05:20:00.976Z,971.96
2018-03-11T05:21:01.214Z,971.93
2018-03-11T05:22:01.454Z,971.89
2018-03-11T05:23:01.693Z,971.91
2018-03-11T05:24:01.935Z,971.92
2018-03-11T05:25:02.171Z,971.92
2018-03-11T05:26:02.412Z,971.95
2018-03-11T05:27:02.648Z,971.93
2018-03-11T05:28:02.885Z,971.92
2018-03-11T05:29:03.127Z,971.87
2018-03-11T05:30:03.374Z,971.91
2018-03-11T05:31:03.612Z,971.93
2018-03-11T05:32:03.852Z,971.94
2018-03-11T05:33:04.090Z,971.97
2018-03-11T05:34:04.333Z,971.93
2018-03-11T05:35:04.574Z,971.97
2018-03-11T05:36:04.812Z,972.00
2018-03-11T05:37:05.054Z,971.99
2018-03-11T05:38:05.292Z,971.98
2018-03-11T05:39:05.532Z,972.01
2018-03-11T05:40:05.771Z,972.00
2018-03-11T05:41:06.013Z,972.03
2018-03-11T05:42:06.257Z,972.04
2018-03-11T05:43:06.491Z,972.01
2018-03-11T05:44:06.790Z,972.01
2018-03-11T05:45:06.965Z,971.99
2018-03-11T05:46:07.205Z,971.93
2018-03-11T05:47:07.446Z,971.93
2018-03-11T05:48:07.687Z,971.86
2018-03-11T05:49:07.926Z,971.85
2018-03-11T05:50:08.165Z,971.79
2018-03-11T05:51:08.404Z,971.79
2018-03-11T05:52:08.646Z,971.74
2018-03-11T05:53:08.893Z,971.71
2018-03-11T05:54:09.122Z,971.66
2018-03-11T05:55:09.362Z,971.68
2018-03-11T05:56:09.599Z,971.70
2018-03-11T05:57:09.840Z,971.72
2018-03-11T05:58:10.081Z,971.73
2018-03-11T05:59:10.322Z,971.73
2018-03-11T06:00:10.562Z,971.71
2018-03-11T06:01:10.801Z,971.70
2018-03-11T06:02:11.043Z,971.69
2018-03-11T06:03:11.281Z,971.69
2018-03-11T06:04:11.530Z,971.65
2018-03-11T06:05:11.758Z,971.62
2018-03-11T06:06:11.997Z,971.61
2018-03-11T06:07:12.235Z,971.68
2018-03-11T06:08:12.476Z,971.72
2018-03-11T06:09:12.712Z,971.74
2018-03-11T06:10:12.951Z,971.75
2018-03-11T06:11:13.193Z,971.82
2018-03-11T06:12:13.432Z,971.78
2018-03-11T06:13:13.668Z,971.75
2018-03-11T06:14:13.907Z,971.73
2018-03-11T06:15:14.155Z,971.73
2018-03-11T06:16:14.389Z,971.70
2018-03-11T06:17:14.635Z,971.66
2018-03-11T06:18:14.874Z,971.64
2018-03-11T06:19:15.111Z,971.62
2018-03-11T06:20:15.346Z,971.60
2018-03-11T06:21:15.586Z,971.54
2018-03-11T06:22:15.826Z,971.53
2018-03-11T06:23:16.065Z,971.54
2018-03-11T06:24:16.310Z,971.53
2018-03-11T06:25:16.549Z,971.56
2018-03-11T06:26:16.806Z,971.53
2018-03-11T06:27:17.032Z,971.58
2018-03-11T06:28:17.272Z,971.57
2018-03-11T06:29:17.508Z,971.59
2018-03-11T06:30:17.747Z,971.55
2018-03-11T06:31:17.991Z,971.48
2018-03-11T06:32:18.227Z,971.45
2018-03-11T06:33:18.466Z,971.36
2018-03-11T06:34:18.707Z,971.37
2018-03-11T06:35:18.946Z,971.34
2018-03-11T06:36:19.188Z,971.33
2018-03-11T06:37:19.433Z,971.32
2018-03-11T06:38:19.665Z,971.31
2018-03-11T06:39:19.903Z,971.33
2018-03-11T06:40:20.142Z,971.27
2018-03-11T06:41:20.384Z,971.29
2018-03-11T06:42:20.617Z,971.26
2018-03-11T06:43:20.856Z,971.30
2018-03-11T06:44:21.094Z,971.31
2018-03-11T06:45:28.956Z,971.32
2018-03-11T06:46:28.753Z,971.25
2018-03-11T06:47:29.012Z,971.18
2018-03-11T06:48:29.272Z,971.17
2018-03-11T06:49:29.560Z,971.15
2018-03-11T06:50:30.016Z,971.13
2018-03-11T06:51:30.066Z,971.08
2018-03-11T06:52:30.321Z,971.05
2018-03-11T06:53:23.470Z,971.04
2018-03-11T06:54:23.676Z,971.06
2018-03-11T06:55:23.915Z,971.05
2018-03-11T06:56:24.154Z,971.05
2018-03-11T06:57:24.398Z,971.01
2018-03-11T06:58:24.635Z,970.98
2018-03-11T06:59:24.889Z,970.96
2018-03-11T07:00:25.120Z,970.94
2018-03-11T07:01:25.354Z,970.84
2018-03-11T07:02:25.594Z,970.80
2018-03-11T07:03:25.834Z,970.86
2018-03-11T07:04:26.073Z,970.86
2018-03-11T07:05:26.313Z,970.83
2018-03-11T07:06:26.559Z,970.82
2018-03-11T07:07:26.799Z,970.82
2018-03-11T07:08:27.034Z,970.80
2018-03-11T07:09:27.275Z,970.78
2018-03-11T07:10:27.513Z,970.75
2018-03-11T07:11:27.756Z,970.72
2018-03-11T07:12:27.990Z,970.72
2018-03-11T07:13:28.229Z,970.73
2018-03-11T07:14:28.464Z,970.74
2018-03-11T07:15:28.705Z,970.77
2018-03-11T07:16:28.947Z,970.80
2018-03-11T07:17:29.186Z,970.76
2018-03-11T07:18:29.425Z,970.77
2018-03-11T07:19:29.669Z,970.77
2018-03-11T07:20:29.906Z,970.77
2018-03-11T07:21:30.148Z,970.76
2018-03-11T07:22:30.394Z,970.75
2018-03-11T07:23:30.624Z,970.72
2018-03-11T07:24:30.864Z,970.71
2018-03-11T07:25:31.104Z,970.72
2018-03-11T07:26:31.341Z,970.70
2018-03-11T07:27:31.582Z,970.69
2018-03-11T07:28:31.829Z,970.67
2018-03-11T07:29:32.069Z,970.68
2018-03-11T07:30:32.306Z,970.67
2018-03-11T07:31:32.546Z,970.65
2018-03-11T07:32:32.785Z,970.65
2018-03-11T07:33:33.020Z,970.65
2018-03-11T07:34:33.249Z,970.66
2018-03-11T07:35:33.489Z,970.63
2018-03-11T07:36:33.735Z,970.61
2018-03-11T07:37:33.975Z,970.61
2018-03-11T07:38:34.210Z,970.58
2018-03-11T07:39:34.450Z,970.59
2018-03-11T07:40:34.688Z,970.55
2018-03-11T07:41:34.924Z,970.50
2018-03-11T07:42:35.167Z,970.50
2018-03-11T07:43:35.406Z,970.42
2018-03-11T07:44:35.645Z,970.44
2018-03-11T07:45:35.887Z,970.40
2018-03-11T07:46:36.127Z,970.33
2018-03-11T07:47:36.367Z,970.30
2018-03-11T07:48:36.610Z,970.33
2018-03-11T07:49:36.842Z,970.37
2018-03-11T07:50:37.082Z,970.37
2018-03-11T07:51:37.320Z,970.37
2018-03-11T07:52:37.560Z,970.41
2018-03-11T07:53:37.794Z,970.45
2018-03-11T07:54:38.082Z,970.48
2018-03-11T07:55:38.272Z,970.50
2018-03-11T07:56:38.512Z,970.49
2018-03-11T07:57:38.755Z,970.54
2018-03-11T07:58:38.999Z,970.56
2018-03-11T07:59:39.235Z,970.54
2018-03-11T08:00:39.474Z,970.53
2018-03-11T08:01:39.714Z,970.50
2018-03-11T08:02:39.956Z,970.52
2018-03-11T08:03:40.195Z,970.51
2018-03-11T08:04:40.428Z,970.55
2018-03-11T08:05:40.663Z,970.57
2018-03-11T08:06:40.903Z,970.61
2018-03-11T08:07:41.144Z,970.60
2018-03-11T08:08:41.377Z,970.59
2018-03-11T08:09:41.616Z,970.59
2018-03-11T08:10:41.855Z,970.57
2018-03-11T08:11:42.092Z,970.55
2018-03-11T08:12:42.334Z,970.57
2018-03-11T08:13:42.574Z,970.63
2018-03-11T08:14:42.813Z,970.67
2018-03-11T08:15:43.052Z,970.71
2018-03-11T08:16:43.295Z,970.72
2018-03-11T08:17:43.533Z,970.73
2018-03-11T08:18:43.779Z,970.83
2018-03-11T08:19:44.008Z,970.83
2018-03-11T08:20:44.248Z,970.86
2018-03-11T08:21:44.490Z,970.85
2018-03-11T08:22:44.729Z,970.84
2018-03-11T08:23:44.964Z,970.87
2018-03-11T08:24:45.200Z,970.87
2018-03-11T08:25:45.439Z,970.90
2018-03-11T08:26:45.677Z,970.90
2018-03-11T08:27:45.913Z,970.99
2018-03-11T08:28:46.168Z,971.01
2018-03-11T08:29:46.383Z,971.00
2018-03-11T08:30:46.625Z,970.96
2018-03-11T08:31:46.860Z,971.01
2018-03-11T08:32:47.102Z,971.00
2018-03-11T08:33:47.339Z,970.92
2018-03-11T08:34:47.582Z,970.88
2018-03-11T08:35:47.816Z,970.88
2018-03-11T08:36:48.057Z,970.87
2018-03-11T08:37:48.294Z,970.84
2018-03-11T08:38:48.535Z,970.84
2018-03-11T08:39:48.774Z,970.79
2018-03-11T08:40:49.016Z,970.84
2018-03-11T08:41:49.261Z,970.82
2018-03-11T08:42:49.504Z,970.85
2018-03-11T08:43:49.731Z,970.88
2018-03-11T08:44:49.970Z,970.92
2018-03-11T08:45:50.209Z,970.94
2018-03-11T08:46:50.444Z,970.93
2018-03-11T08:47:50.684Z,970.94
2018-03-11T08:48:50.927Z,971.02
2018-03-11T08:49:51.163Z,971.01
2018-03-11T08:50:51.404Z,971.04
2018-03-11T08:51:51.650Z,971.01
2018-03-11T08:52:51.895Z,971.06
2018-03-11T08:53:52.153Z,971.04
2018-03-11T08:54:52.369Z,971.04
2018-03-11T08:55:52.600Z,971.04
2018-03-11T08:56:52.836Z,971.04
2018-03-11T08:57:53.075Z,971.06
2018-03-11T08:58:53.325Z,971.09
2018-03-11T08:59:53.536Z,971.06
2018-03-11T09:00:53.775Z,971.09
2018-03-11T09:01:54.015Z,971.00
2018-03-11T09:02:54.254Z,970.96
2018-03-11T09:03:54.497Z,970.96
2018-03-11T09:04:54.741Z,970.91
2018-03-11T09:05:54.974Z,970.91
2018-03-11T09:06:55.214Z,970.92
2018-03-11T09:07:55.453Z,970.89
2018-03-11T09:08:55.694Z,970.93
2018-03-11T09:09:55.930Z,970.89
2018-03-11T09:10:56.171Z,970.87
2018-03-11T09:11:56.408Z,970.84
2018-03-11T09:12:56.646Z,970.82
2018-03-11T09:13:56.888Z,970.86
2018-03-11T09:14:57.132Z,970.81
2018-03-11T09:15:57.373Z,970.79
2018-03-11T09:16:57.608Z,970.78
2018-03-11T09:17:57.854Z,970.75
2018-03-11T09:18:58.086Z,970.68
2018-03-11T09:19:58.329Z,970.63
2018-03-11T09:20:58.582Z,970.61
2018-03-11T09:21:58.821Z,970.59
2018-03-11T09:22:59.066Z,970.53
2018-03-11T09:23:59.298Z,970.55
2018-03-11T09:24:59.537Z,970.53
2018-03-11T09:25:59.790Z,970.49
2018-03-11T09:27:00.028Z,970.47
2018-03-11T09:28:00.267Z,970.43
2018-03-11T09:29:00.569Z,970.41
2018-03-11T09:30:00.736Z,970.40
2018-03-11T09:31:08.120Z,970.38
2018-03-11T09:32:01.246Z,970.42
2018-03-11T09:33:08.616Z,970.43
2018-03-11T09:34:08.878Z,970.40
2018-03-11T09:35:09.122Z,970.42
2018-03-11T09:36:09.380Z,970.41
2018-03-11T09:37:09.632Z,970.40
2018-03-11T09:38:09.890Z,970.28
2018-03-11T09:39:03.014Z,970.26
2018-03-11T09:40:03.255Z,970.18
2018-03-11T09:41:03.493Z,970.20
2018-03-11T09:42:03.736Z,970.17
2018-03-11T09:43:04.008Z,970.13
2018-03-11T09:44:04.212Z,970.17
2018-03-11T09:45:04.446Z,970.16
2018-03-11T09:46:04.691Z,970.15
2018-03-11T09:47:04.931Z,970.10
2018-03-11T09:48:05.176Z,970.09
2018-03-11T09:49:05.406Z,970.13
2018-03-11T09:50:05.658Z,970.14
2018-03-11T09:51:05.897Z,970.13
2018-03-11T09:52:06.141Z,970.12
2018-03-11T09:53:06.376Z,970.05
2018-03-11T09:54:06.617Z,970.05
2018-03-11T09:55:06.870Z,970.01
2018-03-11T09:56:07.093Z,970.03
2018-03-11T09:57:07.332Z,970.02
2018-03-11T09:58:07.572Z,970.04
2018-03-11T09:59:07.811Z,970.00
2018-03-11T10:00:08.047Z,970.02
2018-03-11T10:01:08.282Z,970.00
2018-03-11T10:02:08.523Z,969.99
2018-03-11T10:03:08.764Z,970.00
2018-03-11T10:04:09.001Z,969.98
2018-03-11T10:05:09.240Z,969.97
2018-03-11T10:06:09.478Z,969.98
2018-03-11T10:07:09.713Z,969.96
2018-03-11T10:08:09.957Z,969.95
2018-03-11T10:09:10.201Z,969.93
2018-03-11T10:10:10.446Z,969.86
2018-03-11T10:11:10.678Z,969.88
2018-03-11T10:12:10.917Z,969.86
2018-03-11T10:13:11.161Z,969.87
2018-03-11T10:14:11.401Z,969.84
2018-03-11T10:15:11.638Z,969.84
2018-03-11T10:16:11.875Z,969.83
2018-03-11T10:17:12.118Z,969.84
2018-03-11T10:18:12.360Z,969.85
2018-03-11T10:19:12.597Z,969.87
2018-03-11T10:20:12.839Z,969.88
2018-03-11T10:21:13.082Z,969.88
2018-03-11T10:22:13.314Z,969.88
2018-03-11T10:23:13.553Z,969.87
2018-03-11T10:24:13.794Z,969.86
2018-03-11T10:25:14.032Z,969.92
2018-03-11T10:26:14.272Z,969.87
2018-03-11T10:27:14.511Z,969.88
2018-03-11T10:28:14.751Z,969.85
2018-03-11T10:29:14.990Z,969.89
2018-03-11T10:30:15.238Z,969.86
2018-03-11T10:31:15.485Z,969.90
2018-03-11T10:32:15.726Z,969.91
2018-03-11T10:33:15.966Z,969.89
2018-03-11T10:34:16.208Z,969.88
2018-03-11T10:35:16.455Z,969.92
2018-03-11T10:36:16.699Z,969.90
2018-03-11T10:37:16.936Z,969.92
2018-03-11T10:38:17.175Z,969.88
2018-03-11T10:39:17.415Z,969.85
2018-03-11T10:40:17.655Z,969.89
2018-03-11T10:41:17.895Z,969.83
2018-03-11T10:42:18.140Z,969.84
2018-03-11T10:43:18.380Z,969.85
2018-03-11T10:44:18.611Z,969.85
2018-03-11T10:45:18.851Z,969.86
2018-03-11T10:46:19.092Z,969.87
2018-03-11T10:47:19.325Z,969.82
2018-03-11T10:48:19.564Z,969.84
2018-03-11T10:49:19.804Z,969.81
2018-03-11T10:50:20.042Z,969.81
2018-03-11T10:51:20.284Z,969.76
2018-03-11T10:52:20.535Z,969.74
2018-03-11T10:53:20.768Z,969.77
2018-03-11T10:54:21.006Z,969.71
2018-03-11T10:55:21.246Z,969.73
2018-03-11T10:56:21.485Z,969.71
2018-03-11T10:57:21.727Z,969.70
2018-03-11T10:58:21.964Z,969.66
2018-03-11T10:59:22.203Z,969.70
2018-03-11T11:00:22.443Z,969.72
2018-03-11T11:01:22.678Z,969.79
2018-03-11T11:02:22.923Z,969.81
2018-03-11T11:03:23.166Z,969.86
2018-03-11T11:04:23.404Z,969.83
2018-03-11T11:05:23.644Z,969.88
2018-03-11T11:06:23.883Z,969.85
2018-03-11T11:07:24.125Z,969.82
2018-03-11T11:08:24.364Z,969.74
2018-03-11T11:09:24.602Z,969.72
2018-03-11T11:10:24.842Z,969.72
2018-03-11T11:11:25.084Z,969.76
2018-03-11T11:12:25.324Z,969.74
2018-03-11T11:13:25.562Z,969.71
2018-03-11T11:14:25.800Z,969.75
2018-03-11T11:15:26.047Z,969.77
2018-03-11T11:16:26.278Z,969.81
2018-03-11T11:17:26.517Z,969.67
2018-03-11T11:18:26.755Z,969.64
2018-03-11T11:19:26.996Z,969.62
2018-03-11T11:20:27.234Z,969.61
2018-03-11T11:21:27.475Z,969.52
2018-03-11T11:22:27.712Z,969.51
2018-03-11T11:23:27.951Z,969.51
2018-03-11T11:24:28.186Z,969.51
2018-03-11T11:25:28.484Z,969.45
2018-03-11T11:26:28.664Z,969.48
2018-03-11T11:27:28.902Z,969.48
2018-03-11T11:28:29.144Z,969.46
2018-03-11T11:29:29.390Z,969.46
2018-03-11T11:30:29.632Z,969.44
2018-03-11T11:31:29.861Z,969.40
2018-03-11T11:32:30.101Z,969.34
2018-03-11T11:33:30.338Z,969.35
2018-03-11T11:34:30.580Z,969.38
2018-03-11T11:35:30.815Z,969.37
2018-03-11T11:36:31.055Z,969.35
2018-03-11T11:37:31.343Z,969.35
2018-03-11T11:38:31.532Z,969.34
2018-03-11T11:39:31.776Z,969.33
2018-03-11T11:40:32.011Z,969.36
2018-03-11T11:41:32.249Z,969.36
2018-03-11T11:42:32.489Z,969.39
2018-03-11T11:43:32.730Z,969.37
2018-03-11T11:44:32.971Z,969.35
2018-03-11T11:45:33.220Z,969.37
2018-03-11T11:46:33.449Z,969.35
2018-03-11T11:47:33.688Z,969.36
2018-03-11T11:48:33.928Z,969.36
2018-03-11T11:49:34.166Z,969.38
2018-03-11T11:50:34.408Z,969.37
2018-03-11T11:51:34.668Z,969.38
2018-03-11T11:52:34.894Z,969.37
2018-03-11T11:53:35.131Z,969.37
2018-03-11T11:54:35.370Z,969.40
2018-03-11T11:55:35.609Z,969.43
2018-03-11T11:56:35.851Z,969.44
2018-03-11T11:57:36.086Z,969.42
2018-03-11T11:58:36.326Z,969.40
2018-03-11T11:59:36.567Z,969.37
2018-03-11T12:00:36.804Z,969.39
2018-03-11T12:01:37.047Z,969.39
2018-03-11T12:02:37.293Z,969.34
2018-03-11T12:03:37.537Z,969.33
2018-03-11T12:04:37.770Z,969.28
2018-03-11T12:05:38.006Z,969.27
2018-03-11T12:06:38.244Z,969.26
2018-03-11T12:07:38.486Z,969.19
2018-03-11T12:08:38.720Z,969.15
2018-03-11T12:09:38.960Z,969.14
2018-03-11T12:10:39.203Z,969.13
2018-03-11T12:11:39.440Z,969.11
2018-03-11T12:12:39.683Z,969.12
2018-03-11T12:13:39.927Z,969.10
2018-03-11T12:14:40.173Z,969.14
2018-03-11T12:15:47.745Z,969.10
2018-03-11T12:16:48.280Z,969.17
2018-03-11T12:17:47.085Z,969.16
2018-03-11T12:18:48.497Z,969.18
2018-03-11T12:19:48.761Z,969.21
2018-03-11T12:20:49.020Z,969.18
2018-03-11T12:21:49.276Z,969.23
2018-03-11T12:22:49.533Z,969.21
2018-03-11T12:23:42.646Z,969.25
2018-03-11T12:24:42.903Z,969.24
2018-03-11T12:25:43.133Z,969.18
2018-03-11T12:26:43.374Z,969.20
2018-03-11T12:27:43.612Z,969.27
2018-03-11T12:28:43.856Z,969.26
2018-03-11T12:29:44.092Z,969.29
2018-03-11T12:30:44.325Z,969.21
2018-03-11T12:31:44.563Z,969.17